sensor_id;sensor_type;location;lat;lon;timestamp;P1;durP1;ratioP1;P2;durP2;ratioP2
28509;SDS011;15723;55.684;37.928;2022-10-16T06:40:44;12.73;;;6.70;;
28509;SDS011;15723;55.684;37.928;2022-10-16T06:43:10;16.63;;;7.43;;
28509;SDS011;15723;55.684;37.928;2022-10-16T06:45:36;12.57;;;7.35;;
28509;SDS011;15723;55.684;37.928;2022-10-16T06:48:02;11.25;;;6.60;;
28509;SDS011;15723;55.684;37.928;2022-10-16T06:50:29;14.60;;;7.68;;
28509;SDS011;15723;55.684;37.928;2022-10-16T06:52:55;14.27;;;7.28;;
28509;SDS011;15723;55.684;37.928;2022-10-16T06:55:21;14.85;;;7.30;;
28509;SDS011;15723;55.684;37.928;2022-10-16T06:57:47;12.85;;;7.03;;
28509;SDS011;15723;55.684;37.928;2022-10-16T07:00:14;16.00;;;7.55;;
28509;SDS011;15723;55.684;37.928;2022-10-16T07:02:41;12.73;;;7.03;;
28509;SDS011;15723;55.684;37.928;2022-10-16T07:05:07;15.18;;;7.95;;
28509;SDS011;15723;55.684;37.928;2022-10-16T07:07:34;14.85;;;8.10;;
28509;SDS011;15723;55.684;37.928;2022-10-16T07:10:00;11.77;;;8.05;;
28509;SDS011;15723;55.684;37.928;2022-10-16T07:12:27;15.13;;;7.72;;
28509;SDS011;15723;55.684;37.928;2022-10-16T07:14:53;15.65;;;7.57;;
28509;SDS011;15723;55.684;37.928;2022-10-16T07:17:20;11.73;;;7.18;;
28509;SDS011;15723;55.684;37.928;2022-10-16T07:19:46;11.60;;;7.20;;
28509;SDS011;15723;55.684;37.928;2022-10-16T07:22:13;14.10;;;8.18;;
28509;SDS011;15723;55.684;37.928;2022-10-16T07:24:39;12.48;;;7.60;;
28509;SDS011;15723;55.684;37.928;2022-10-16T07:27:05;11.88;;;7.68;;
28509;SDS011;15723;55.684;37.928;2022-10-16T07:29:32;15.20;;;6.95;;
28509;SDS011;15723;55.684;37.928;2022-10-16T07:31:58;12.05;;;7.70;;
28509;SDS011;15723;55.684;37.928;2022-10-16T07:34:25;17.05;;;7.45;;
28509;SDS011;15723;55.684;37.928;2022-10-16T07:36:56;15.00;;;7.10;;
28509;SDS011;15723;55.684;37.928;2022-10-16T07:39:22;13.70;;;7.22;;
28509;SDS011;15723;55.684;37.928;2022-10-16T07:41:49;10.60;;;7.25;;
28509;SDS011;15723;55.684;37.928;2022-10-16T07:44:15;17.15;;;6.85;;
28509;SDS011;15723;55.684;37.928;2022-10-16T07:46:41;10.55;;;6.32;;
28509;SDS011;15723;55.684;37.928;2022-10-16T07:49:08;10.50;;;6.95;;
28509;SDS011;15723;55.684;37.928;2022-10-16T07:51:34;12.27;;;6.97;;
28509;SDS011;15723;55.684;37.928;2022-10-16T07:54:01;17.15;;;6.68;;
28509;SDS011;15723;55.684;37.928;2022-10-16T07:56:27;13.18;;;6.60;;
28509;SDS011;15723;55.684;37.928;2022-10-16T07:58:56;15.05;;;7.65;;
28509;SDS011;15723;55.684;37.928;2022-10-16T08:01:22;11.55;;;7.07;;
28509;SDS011;15723;55.684;37.928;2022-10-16T08:03:49;13.93;;;6.72;;
28509;SDS011;15723;55.684;37.928;2022-10-16T08:06:16;11.98;;;6.53;;
28509;SDS011;15723;55.684;37.928;2022-10-16T08:08:44;12.43;;;6.82;;
28509;SDS011;15723;55.684;37.928;2022-10-16T08:11:10;12.48;;;6.75;;
28509;SDS011;15723;55.684;37.928;2022-10-16T08:13:36;12.05;;;7.35;;
28509;SDS011;15723;55.684;37.928;2022-10-16T08:16:03;13.93;;;7.00;;
28509;SDS011;15723;55.684;37.928;2022-10-16T08:18:34;13.40;;;6.85;;
28509;SDS011;15723;55.684;37.928;2022-10-16T08:21:04;11.93;;;6.97;;
28509;SDS011;15723;55.684;37.928;2022-10-16T08:23:32;13.05;;;6.75;;
28509;SDS011;15723;55.684;37.928;2022-10-16T08:26:04;13.50;;;6.88;;
28509;SDS011;15723;55.684;37.928;2022-10-16T08:28:32;12.45;;;7.13;;
28509;SDS011;15723;55.684;37.928;2022-10-16T08:31:09;16.77;;;7.03;;
28509;SDS011;15723;55.684;37.928;2022-10-16T08:33:37;13.98;;;7.25;;
28509;SDS011;15723;55.684;37.928;2022-10-16T08:36:04;12.65;;;6.95;;
28509;SDS011;15723;55.684;37.928;2022-10-16T08:51:32;19.55;;;7.53;;
28509;SDS011;15723;55.684;37.928;2022-10-16T08:54:05;14.52;;;7.93;;
28509;SDS011;15723;55.684;37.928;2022-10-16T08:56:37;15.63;;;7.03;;
28509;SDS011;15723;55.684;37.928;2022-10-16T08:59:04;12.65;;;7.20;;
28509;SDS011;15723;55.684;37.928;2022-10-16T09:01:39;18.10;;;7.18;;
28509;SDS011;15723;55.684;37.928;2022-10-16T09:07:04;15.38;;;7.43;;
28509;SDS011;15723;55.684;37.928;2022-10-16T09:12:37;10.35;;;7.00;;
28509;SDS011;15723;55.684;37.928;2022-10-16T09:19:05;14.05;;;6.43;;
28509;SDS011;15723;55.684;37.928;2022-10-16T09:21:49;20.85;;;6.60;;
28509;SDS011;15723;55.684;37.928;2022-10-16T09:24:17;15.13;;;6.57;;
28509;SDS011;15723;55.684;37.928;2022-10-16T09:26:46;11.32;;;6.63;;
28509;SDS011;15723;55.684;37.928;2022-10-16T09:29:13;16.92;;;6.38;;
28509;SDS011;15723;55.684;37.928;2022-10-16T09:31:41;12.27;;;6.43;;
28509;SDS011;15723;55.684;37.928;2022-10-16T09:34:17;10.93;;;6.10;;
28509;SDS011;15723;55.684;37.928;2022-10-16T09:36:52;10.95;;;5.28;;
28509;SDS011;15723;55.684;37.928;2022-10-16T09:39:18;10.63;;;5.57;;
28509;SDS011;15723;55.684;37.928;2022-10-16T09:41:45;11.20;;;5.35;;
28509;SDS011;15723;55.684;37.928;2022-10-16T09:44:30;7.05;;;4.75;;
28509;SDS011;15723;55.684;37.928;2022-10-16T09:47:16;9.68;;;4.47;;
28509;SDS011;15723;55.684;37.928;2022-10-16T09:50:04;10.82;;;4.75;;
28509;SDS011;15723;55.684;37.928;2022-10-16T09:52:45;12.82;;;5.75;;
28509;SDS011;15723;55.684;37.928;2022-10-16T09:55:17;11.63;;;5.18;;
28509;SDS011;15723;55.684;37.928;2022-10-16T09:57:50;13.27;;;5.50;;
28509;SDS011;15723;55.684;37.928;2022-10-16T10:00:18;12.73;;;5.30;;
28509;SDS011;15723;55.684;37.928;2022-10-16T10:02:45;17.10;;;4.93;;
28509;SDS011;15723;55.684;37.928;2022-10-16T10:05:20;14.95;;;5.03;;
28509;SDS011;15723;55.684;37.928;2022-10-16T10:07:53;14.10;;;4.82;;
28509;SDS011;15723;55.684;37.928;2022-10-16T10:10:32;12.50;;;4.47;;
28509;SDS011;15723;55.684;37.928;2022-10-16T10:13:00;13.50;;;4.63;;
28509;SDS011;15723;55.684;37.928;2022-10-16T10:15:27;10.55;;;3.67;;
28509;SDS011;15723;55.684;37.928;2022-10-16T10:17:59;15.65;;;4.82;;
28509;SDS011;15723;55.684;37.928;2022-10-16T10:20:32;9.65;;;4.10;;
28509;SDS011;15723;55.684;37.928;2022-10-16T10:23:00;11.55;;;4.20;;
28509;SDS011;15723;55.684;37.928;2022-10-16T10:25:49;7.53;;;4.13;;
28509;SDS011;15723;55.684;37.928;2022-10-16T10:28:40;16.63;;;3.95;;
28509;SDS011;15723;55.684;37.928;2022-10-16T10:31:22;8.48;;;3.63;;
28509;SDS011;15723;55.684;37.928;2022-10-16T10:33:59;14.52;;;3.65;;
28509;SDS011;15723;55.684;37.928;2022-10-16T10:36:47;11.32;;;4.07;;
28509;SDS011;15723;55.684;37.928;2022-10-16T10:39:28;6.80;;;3.13;;
28509;SDS011;15723;55.684;37.928;2022-10-16T10:42:09;7.55;;;3.78;;
28509;SDS011;15723;55.684;37.928;2022-10-16T10:44:54;7.57;;;3.35;;
28509;SDS011;15723;55.684;37.928;2022-10-16T10:48:19;7.63;;;4.22;;
28509;SDS011;15723;55.684;37.928;2022-10-16T10:53:21;11.63;;;3.97;;
28509;SDS011;15723;55.684;37.928;2022-10-16T10:56:14;14.75;;;3.97;;
28509;SDS011;15723;55.684;37.928;2022-10-16T10:58:55;13.90;;;4.13;;
28509;SDS011;15723;55.684;37.928;2022-10-16T11:09:18;8.70;;;4.05;;
28509;SDS011;15723;55.684;37.928;2022-10-16T11:11:52;5.63;;;3.60;;
28509;SDS011;15723;55.684;37.928;2022-10-16T11:14:29;7.25;;;3.58;;
28509;SDS011;15723;55.684;37.928;2022-10-16T11:22:34;9.95;;;3.78;;
28509;SDS011;15723;55.684;37.928;2022-10-16T11:27:57;9.15;;;3.60;;
28509;SDS011;15723;55.684;37.928;2022-10-16T11:30:56;10.20;;;3.85;;
28509;SDS011;15723;55.684;37.928;2022-10-16T11:36:33;8.50;;;4.10;;
28509;SDS011;15723;55.684;37.928;2022-10-16T11:39:28;11.43;;;4.18;;
28509;SDS011;15723;55.684;37.928;2022-10-16T11:50:17;8.02;;;3.63;;
28509;SDS011;15723;55.684;37.928;2022-10-16T11:56:11;8.20;;;3.33;;
28509;SDS011;15723;55.684;37.928;2022-10-16T12:01:46;7.35;;;3.67;;
28509;SDS011;15723;55.684;37.928;2022-10-16T12:04:35;10.85;;;3.35;;
28509;SDS011;15723;55.684;37.928;2022-10-16T12:07:14;5.65;;;3.40;;
28509;SDS011;15723;55.684;37.928;2022-10-16T12:09:48;5.38;;;3.25;;
28509;SDS011;15723;55.684;37.928;2022-10-16T12:12:27;9.60;;;3.60;;
28509;SDS011;15723;55.684;37.928;2022-10-16T12:15:17;7.43;;;3.38;;
28509;SDS011;15723;55.684;37.928;2022-10-16T12:17:52;7.05;;;3.30;;
28509;SDS011;15723;55.684;37.928;2022-10-16T12:20:25;5.78;;;3.22;;
28509;SDS011;15723;55.684;37.928;2022-10-16T12:25:35;6.22;;;3.78;;
28509;SDS011;15723;55.684;37.928;2022-10-16T12:30:41;7.10;;;4.13;;
28509;SDS011;15723;55.684;37.928;2022-10-16T12:35:49;12.70;;;4.30;;
28509;SDS011;15723;55.684;37.928;2022-10-16T12:41:28;8.10;;;3.50;;
28509;SDS011;15723;55.684;37.928;2022-10-16T12:43:56;9.43;;;3.63;;
28509;SDS011;15723;55.684;37.928;2022-10-16T12:49:19;9.70;;;4.57;;
28509;SDS011;15723;55.684;37.928;2022-10-16T12:51:47;6.93;;;3.45;;
28509;SDS011;15723;55.684;37.928;2022-10-16T12:54:17;7.32;;;3.20;;
28509;SDS011;15723;55.684;37.928;2022-10-16T13:11:24;16.00;;;4.22;;
28509;SDS011;15723;55.684;37.928;2022-10-16T13:14:14;7.13;;;3.75;;
28509;SDS011;15723;55.684;37.928;2022-10-16T13:20:15;6.93;;;3.80;;
28509;SDS011;15723;55.684;37.928;2022-10-16T13:25:56;7.07;;;3.92;;
28509;SDS011;15723;55.684;37.928;2022-10-16T13:28:31;7.72;;;4.25;;
28509;SDS011;15723;55.684;37.928;2022-10-16T13:31:00;7.55;;;4.32;;
28509;SDS011;15723;55.684;37.928;2022-10-16T13:33:32;10.80;;;4.20;;
28509;SDS011;15723;55.684;37.928;2022-10-16T13:36:01;9.10;;;3.78;;
28509;SDS011;15723;55.684;37.928;2022-10-16T13:38:35;7.85;;;3.55;;
28509;SDS011;15723;55.684;37.928;2022-10-16T13:41:03;10.85;;;3.78;;
28509;SDS011;15723;55.684;37.928;2022-10-16T13:43:34;7.90;;;4.30;;
28509;SDS011;15723;55.684;37.928;2022-10-16T13:46:05;10.07;;;4.57;;
28509;SDS011;15723;55.684;37.928;2022-10-16T13:48:37;12.25;;;4.70;;
28509;SDS011;15723;55.684;37.928;2022-10-16T13:51:04;8.25;;;4.28;;
28509;SDS011;15723;55.684;37.928;2022-10-16T13:53:36;9.05;;;4.10;;
28509;SDS011;15723;55.684;37.928;2022-10-16T13:56:04;7.00;;;3.95;;
28509;SDS011;15723;55.684;37.928;2022-10-16T13:58:32;10.05;;;4.40;;
28509;SDS011;15723;55.684;37.928;2022-10-16T14:01:02;10.07;;;5.00;;
28509;SDS011;15723;55.684;37.928;2022-10-16T14:03:31;13.47;;;5.70;;
28509;SDS011;15723;55.684;37.928;2022-10-16T14:06:00;7.28;;;4.40;;
28509;SDS011;15723;55.684;37.928;2022-10-16T14:08:29;9.38;;;4.32;;
28509;SDS011;15723;55.684;37.928;2022-10-16T14:10:57;14.55;;;5.55;;
28509;SDS011;15723;55.684;37.928;2022-10-16T14:13:47;7.80;;;5.18;;
28509;SDS011;15723;55.684;37.928;2022-10-16T14:16:31;7.13;;;4.60;;
28509;SDS011;15723;55.684;37.928;2022-10-16T14:19:00;11.15;;;5.00;;
28509;SDS011;15723;55.684;37.928;2022-10-16T14:21:28;9.30;;;5.00;;
28509;SDS011;15723;55.684;37.928;2022-10-16T14:23:55;7.25;;;4.57;;
28509;SDS011;15723;55.684;37.928;2022-10-16T14:26:23;11.27;;;5.07;;
28509;SDS011;15723;55.684;37.928;2022-10-16T14:29:02;7.43;;;4.15;;
28509;SDS011;15723;55.684;37.928;2022-10-16T14:31:36;9.75;;;4.68;;
28509;SDS011;15723;55.684;37.928;2022-10-16T14:34:22;13.25;;;4.40;;
28509;SDS011;15723;55.684;37.928;2022-10-16T14:36:54;14.25;;;4.60;;
28509;SDS011;15723;55.684;37.928;2022-10-16T14:39:22;10.82;;;4.35;;
28509;SDS011;15723;55.684;37.928;2022-10-16T14:41:52;8.63;;;4.63;;
28509;SDS011;15723;55.684;37.928;2022-10-16T14:44:22;13.57;;;4.97;;
28509;SDS011;15723;55.684;37.928;2022-10-16T14:46:54;12.02;;;5.03;;
28509;SDS011;15723;55.684;37.928;2022-10-16T14:49:21;10.20;;;4.82;;
28509;SDS011;15723;55.684;37.928;2022-10-16T14:51:49;9.70;;;4.20;;
28509;SDS011;15723;55.684;37.928;2022-10-16T14:54:17;8.23;;;4.05;;
28509;SDS011;15723;55.684;37.928;2022-10-16T14:56:46;9.23;;;4.47;;
28509;SDS011;15723;55.684;37.928;2022-10-16T14:59:27;8.45;;;4.07;;
28509;SDS011;15723;55.684;37.928;2022-10-16T15:01:58;9.38;;;4.65;;
28509;SDS011;15723;55.684;37.928;2022-10-16T15:04:24;8.98;;;4.10;;
28509;SDS011;15723;55.684;37.928;2022-10-16T15:06:51;18.48;;;4.80;;
28509;SDS011;15723;55.684;37.928;2022-10-16T15:09:17;13.52;;;5.05;;
28509;SDS011;15723;55.684;37.928;2022-10-16T15:11:43;8.68;;;4.65;;
28509;SDS011;15723;55.684;37.928;2022-10-16T15:14:13;11.52;;;5.30;;
28509;SDS011;15723;55.684;37.928;2022-10-16T15:16:39;10.25;;;4.65;;
28509;SDS011;15723;55.684;37.928;2022-10-16T15:19:05;23.25;;;5.85;;
28509;SDS011;15723;55.684;37.928;2022-10-16T15:21:32;11.07;;;5.35;;
28509;SDS011;15723;55.684;37.928;2022-10-16T15:23:59;10.07;;;4.63;;
28509;SDS011;15723;55.684;37.928;2022-10-16T15:26:26;9.23;;;5.80;;
28509;SDS011;15723;55.684;37.928;2022-10-16T15:28:54;14.57;;;6.50;;
28509;SDS011;15723;55.684;37.928;2022-10-16T15:31:20;13.77;;;5.85;;
28509;SDS011;15723;55.684;37.928;2022-10-16T15:33:51;10.65;;;5.88;;
28509;SDS011;15723;55.684;37.928;2022-10-16T15:36:27;12.18;;;6.85;;
28509;SDS011;15723;55.684;37.928;2022-10-16T15:38:55;16.70;;;6.47;;
28509;SDS011;15723;55.684;37.928;2022-10-16T15:41:26;13.98;;;7.85;;
28509;SDS011;15723;55.684;37.928;2022-10-16T15:43:53;12.02;;;6.25;;
28509;SDS011;15723;55.684;37.928;2022-10-16T15:46:20;18.27;;;8.20;;
28509;SDS011;15723;55.684;37.928;2022-10-16T15:48:48;15.27;;;8.20;;
28509;SDS011;15723;55.684;37.928;2022-10-16T15:51:17;17.20;;;8.60;;
28509;SDS011;15723;55.684;37.928;2022-10-16T15:53:44;17.63;;;10.57;;
28509;SDS011;15723;55.684;37.928;2022-10-16T15:56:12;18.67;;;8.63;;
28509;SDS011;15723;55.684;37.928;2022-10-16T15:58:41;18.33;;;9.35;;
28509;SDS011;15723;55.684;37.928;2022-10-16T16:01:08;24.45;;;8.65;;
28509;SDS011;15723;55.684;37.928;2022-10-16T16:03:37;26.95;;;9.68;;
28509;SDS011;15723;55.684;37.928;2022-10-16T16:06:07;27.45;;;9.77;;
28509;SDS011;15723;55.684;37.928;2022-10-16T16:08:36;22.20;;;9.25;;
28509;SDS011;15723;55.684;37.928;2022-10-16T16:11:04;25.00;;;9.90;;
28509;SDS011;15723;55.684;37.928;2022-10-16T16:13:37;27.05;;;10.18;;
28509;SDS011;15723;55.684;37.928;2022-10-16T16:16:08;29.67;;;10.82;;
28509;SDS011;15723;55.684;37.928;2022-10-16T16:18:36;26.52;;;10.38;;
28509;SDS011;15723;55.684;37.928;2022-10-16T16:21:03;26.30;;;11.38;;
28509;SDS011;15723;55.684;37.928;2022-10-16T16:23:30;30.17;;;12.05;;
28509;SDS011;15723;55.684;37.928;2022-10-16T16:28:54;24.02;;;11.75;;
28509;SDS011;15723;55.684;37.928;2022-10-16T16:31:23;29.92;;;11.52;;
28509;SDS011;15723;55.684;37.928;2022-10-16T16:33:51;24.50;;;11.23;;
28509;SDS011;15723;55.684;37.928;2022-10-16T16:36:17;25.65;;;11.73;;
28509;SDS011;15723;55.684;37.928;2022-10-16T16:38:45;23.60;;;9.75;;
28509;SDS011;15723;55.684;37.928;2022-10-16T16:41:12;25.20;;;11.38;;
28509;SDS011;15723;55.684;37.928;2022-10-16T16:43:40;23.05;;;10.23;;
28509;SDS011;15723;55.684;37.928;2022-10-16T16:46:06;22.95;;;10.70;;
28509;SDS011;15723;55.684;37.928;2022-10-16T16:48:33;18.08;;;9.65;;
28509;SDS011;15723;55.684;37.928;2022-10-16T16:51:09;20.80;;;10.02;;
28509;SDS011;15723;55.684;37.928;2022-10-16T16:53:41;22.65;;;9.32;;
28509;SDS011;15723;55.684;37.928;2022-10-16T16:56:11;19.85;;;9.93;;
28509;SDS011;15723;55.684;37.928;2022-10-16T16:58:44;19.02;;;9.07;;
28509;SDS011;15723;55.684;37.928;2022-10-16T17:01:11;24.50;;;9.50;;
28509;SDS011;15723;55.684;37.928;2022-10-16T17:03:37;21.33;;;9.73;;
28509;SDS011;15723;55.684;37.928;2022-10-16T17:06:05;18.25;;;9.50;;
28509;SDS011;15723;55.684;37.928;2022-10-16T17:08:34;20.33;;;9.57;;
28509;SDS011;15723;55.684;37.928;2022-10-16T17:11:01;16.77;;;9.38;;
28509;SDS011;15723;55.684;37.928;2022-10-16T17:13:30;16.38;;;8.98;;
28509;SDS011;15723;55.684;37.928;2022-10-16T17:16:00;19.65;;;9.75;;
28509;SDS011;15723;55.684;37.928;2022-10-16T17:18:26;18.55;;;9.27;;
28509;SDS011;15723;55.684;37.928;2022-10-16T17:20:53;17.38;;;9.27;;
28509;SDS011;15723;55.684;37.928;2022-10-16T17:23:19;21.52;;;9.10;;
28509;SDS011;15723;55.684;37.928;2022-10-16T17:25:45;15.88;;;8.65;;
28509;SDS011;15723;55.684;37.928;2022-10-16T17:28:12;20.27;;;8.93;;
28509;SDS011;15723;55.684;37.928;2022-10-16T17:30:39;21.15;;;8.93;;
28509;SDS011;15723;55.684;37.928;2022-10-16T17:33:08;29.10;;;8.80;;
28509;SDS011;15723;55.684;37.928;2022-10-16T17:35:36;25.00;;;8.48;;
28509;SDS011;15723;55.684;37.928;2022-10-16T17:38:04;17.02;;;9.13;;
28509;SDS011;15723;55.684;37.928;2022-10-16T17:40:30;15.95;;;9.38;;
28509;SDS011;15723;55.684;37.928;2022-10-16T17:42:57;17.70;;;9.35;;
28509;SDS011;15723;55.684;37.928;2022-10-16T17:45:24;20.25;;;8.27;;
28509;SDS011;15723;55.684;37.928;2022-10-16T17:47:50;22.42;;;8.70;;
28509;SDS011;15723;55.684;37.928;2022-10-16T17:50:17;17.98;;;9.02;;
28509;SDS011;15723;55.684;37.928;2022-10-16T17:52:43;21.60;;;9.45;;
28509;SDS011;15723;55.684;37.928;2022-10-16T17:55:10;18.90;;;9.98;;
28509;SDS011;15723;55.684;37.928;2022-10-16T17:57:37;21.15;;;8.82;;
28509;SDS011;15723;55.684;37.928;2022-10-16T18:00:04;17.85;;;10.18;;
28509;SDS011;15723;55.684;37.928;2022-10-16T18:02:32;17.20;;;9.48;;
28509;SDS011;15723;55.684;37.928;2022-10-16T18:04:58;17.67;;;8.95;;
28509;SDS011;15723;55.684;37.928;2022-10-16T18:07:25;20.02;;;8.93;;
28509;SDS011;15723;55.684;37.928;2022-10-16T18:09:51;13.27;;;8.52;;
28509;SDS011;15723;55.684;37.928;2022-10-16T18:12:18;18.42;;;8.23;;
28509;SDS011;15723;55.684;37.928;2022-10-16T18:14:44;15.38;;;8.95;;
28509;SDS011;15723;55.684;37.928;2022-10-16T18:17:11;18.30;;;9.20;;
28509;SDS011;15723;55.684;37.928;2022-10-16T18:19:37;24.05;;;10.25;;
28509;SDS011;15723;55.684;37.928;2022-10-16T18:22:04;17.13;;;9.88;;
28509;SDS011;15723;55.684;37.928;2022-10-16T18:24:30;15.20;;;9.13;;
28509;SDS011;15723;55.684;37.928;2022-10-16T18:26:56;22.70;;;9.77;;
28509;SDS011;15723;55.684;37.928;2022-10-16T18:29:24;18.90;;;10.20;;
28509;SDS011;15723;55.684;37.928;2022-10-16T18:31:51;16.23;;;9.68;;
28509;SDS011;15723;55.684;37.928;2022-10-16T18:34:18;18.83;;;10.43;;
28509;SDS011;15723;55.684;37.928;2022-10-16T18:36:45;19.02;;;9.98;;
28509;SDS011;15723;55.684;37.928;2022-10-16T18:39:11;20.98;;;10.52;;
28509;SDS011;15723;55.684;37.928;2022-10-16T18:41:39;24.45;;;11.02;;
28509;SDS011;15723;55.684;37.928;2022-10-16T18:44:09;18.65;;;9.73;;
28509;SDS011;15723;55.684;37.928;2022-10-16T18:46:36;18.25;;;10.10;;
28509;SDS011;15723;55.684;37.928;2022-10-16T18:49:02;19.65;;;9.57;;
28509;SDS011;15723;55.684;37.928;2022-10-16T18:51:30;21.38;;;9.95;;
28509;SDS011;15723;55.684;37.928;2022-10-16T18:53:59;20.35;;;10.23;;
28509;SDS011;15723;55.684;37.928;2022-10-16T18:56:28;16.30;;;10.05;;
28509;SDS011;15723;55.684;37.928;2022-10-16T18:58:57;20.30;;;10.10;;
28509;SDS011;15723;55.684;37.928;2022-10-16T19:01:26;15.07;;;9.15;;
28509;SDS011;15723;55.684;37.928;2022-10-16T19:03:58;20.10;;;10.63;;
28509;SDS011;15723;55.684;37.928;2022-10-16T19:06:27;22.23;;;10.95;;
28509;SDS011;15723;55.684;37.928;2022-10-16T19:08:54;17.08;;;9.65;;
28509;SDS011;15723;55.684;37.928;2022-10-16T19:11:22;15.00;;;8.68;;
28509;SDS011;15723;55.684;37.928;2022-10-16T19:13:50;21.30;;;9.55;;
28509;SDS011;15723;55.684;37.928;2022-10-16T19:16:20;19.13;;;9.73;;
28509;SDS011;15723;55.684;37.928;2022-10-16T19:18:49;18.23;;;8.88;;
28509;SDS011;15723;55.684;37.928;2022-10-16T19:21:18;17.50;;;10.20;;
28509;SDS011;15723;55.684;37.928;2022-10-16T19:23:48;16.30;;;8.70;;
28509;SDS011;15723;55.684;37.928;2022-10-16T19:26:18;16.33;;;8.90;;
28509;SDS011;15723;55.684;37.928;2022-10-16T19:28:45;16.30;;;8.70;;
28509;SDS011;15723;55.684;37.928;2022-10-16T19:31:12;18.20;;;8.90;;
28509;SDS011;15723;55.684;37.928;2022-10-16T19:33:40;16.20;;;9.10;;
28509;SDS011;15723;55.684;37.928;2022-10-16T19:38:35;14.98;;;8.55;;
28509;SDS011;15723;55.684;37.928;2022-10-16T19:41:07;36.30;;;10.00;;
28509;SDS011;15723;55.684;37.928;2022-10-16T19:43:35;18.38;;;8.55;;
28509;SDS011;15723;55.684;37.928;2022-10-16T19:46:09;19.20;;;8.73;;
28509;SDS011;15723;55.684;37.928;2022-10-16T19:48:43;20.40;;;8.98;;
28509;SDS011;15723;55.684;37.928;2022-10-16T19:51:11;13.93;;;8.13;;
28509;SDS011;15723;55.684;37.928;2022-10-16T19:53:41;14.45;;;7.63;;
28509;SDS011;15723;55.684;37.928;2022-10-16T19:56:11;14.38;;;7.65;;
28509;SDS011;15723;55.684;37.928;2022-10-16T19:58:40;14.98;;;8.60;;
28509;SDS011;15723;55.684;37.928;2022-10-16T20:01:06;24.13;;;7.75;;
28509;SDS011;15723;55.684;37.928;2022-10-16T20:03:33;14.95;;;7.28;;
28509;SDS011;15723;55.684;37.928;2022-10-16T20:06:00;12.93;;;8.23;;
28509;SDS011;15723;55.684;37.928;2022-10-16T20:08:34;12.70;;;7.35;;
28509;SDS011;15723;55.684;37.928;2022-10-16T20:11:02;13.75;;;7.00;;
28509;SDS011;15723;55.684;37.928;2022-10-16T20:13:30;18.15;;;7.95;;
28509;SDS011;15723;55.684;37.928;2022-10-16T20:15:57;15.18;;;7.47;;
28509;SDS011;15723;55.684;37.928;2022-10-16T20:18:23;12.75;;;6.65;;
28509;SDS011;15723;55.684;37.928;2022-10-16T20:20:50;21.42;;;8.02;;
28509;SDS011;15723;55.684;37.928;2022-10-16T20:23:17;16.98;;;7.90;;
28509;SDS011;15723;55.684;37.928;2022-10-16T20:25:44;15.25;;;7.10;;
28509;SDS011;15723;55.684;37.928;2022-10-16T20:28:14;17.75;;;7.53;;
28509;SDS011;15723;55.684;37.928;2022-10-16T20:30:43;16.35;;;8.30;;
28509;SDS011;15723;55.684;37.928;2022-10-16T20:33:11;12.65;;;7.15;;
28509;SDS011;15723;55.684;37.928;2022-10-16T20:35:39;14.80;;;7.70;;
28509;SDS011;15723;55.684;37.928;2022-10-16T20:38:08;15.13;;;7.45;;
28509;SDS011;15723;55.684;37.928;2022-10-16T20:40:36;14.45;;;7.38;;
28509;SDS011;15723;55.684;37.928;2022-10-16T20:43:05;21.80;;;7.85;;
28509;SDS011;15723;55.684;37.928;2022-10-16T20:45:35;14.65;;;7.68;;
28509;SDS011;15723;55.684;37.928;2022-10-16T20:48:01;12.25;;;7.22;;
28509;SDS011;15723;55.684;37.928;2022-10-16T20:50:28;13.27;;;7.13;;
28509;SDS011;15723;55.684;37.928;2022-10-16T20:52:55;11.98;;;7.07;;
28509;SDS011;15723;55.684;37.928;2022-10-16T20:55:23;18.20;;;8.25;;
28509;SDS011;15723;55.684;37.928;2022-10-16T20:57:49;16.30;;;7.28;;
28509;SDS011;15723;55.684;37.928;2022-10-16T21:00:16;15.90;;;7.60;;
28509;SDS011;15723;55.684;37.928;2022-10-16T21:02:43;12.93;;;7.20;;
28509;SDS011;15723;55.684;37.928;2022-10-16T21:05:10;11.52;;;7.03;;
28509;SDS011;15723;55.684;37.928;2022-10-16T21:07:36;9.82;;;7.25;;
28509;SDS011;15723;55.684;37.928;2022-10-16T21:10:02;13.25;;;6.95;;
28509;SDS011;15723;55.684;37.928;2022-10-16T21:12:29;14.95;;;7.18;;
28509;SDS011;15723;55.684;37.928;2022-10-16T21:14:55;14.75;;;6.97;;
28509;SDS011;15723;55.684;37.928;2022-10-16T21:17:23;9.27;;;6.07;;
28509;SDS011;15723;55.684;37.928;2022-10-16T21:19:49;11.85;;;6.68;;
28509;SDS011;15723;55.684;37.928;2022-10-16T21:22:15;14.68;;;7.40;;
28509;SDS011;15723;55.684;37.928;2022-10-16T21:24:42;12.85;;;6.72;;
28509;SDS011;15723;55.684;37.928;2022-10-16T21:27:08;11.82;;;6.80;;
28509;SDS011;15723;55.684;37.928;2022-10-16T21:29:34;8.45;;;6.40;;
28509;SDS011;15723;55.684;37.928;2022-10-16T21:32:00;16.17;;;6.43;;
28509;SDS011;15723;55.684;37.928;2022-10-16T21:34:27;11.85;;;7.10;;
28509;SDS011;15723;55.684;37.928;2022-10-16T21:36:53;10.68;;;6.93;;
28509;SDS011;15723;55.684;37.928;2022-10-16T21:39:20;12.93;;;6.60;;
28509;SDS011;15723;55.684;37.928;2022-10-16T21:41:48;12.57;;;6.68;;
28509;SDS011;15723;55.684;37.928;2022-10-16T21:44:16;15.57;;;6.35;;
28509;SDS011;15723;55.684;37.928;2022-10-16T21:46:45;12.73;;;7.32;;
28509;SDS011;15723;55.684;37.928;2022-10-16T21:49:13;14.68;;;6.97;;
28509;SDS011;15723;55.684;37.928;2022-10-16T21:51:45;12.90;;;6.28;;
28509;SDS011;15723;55.684;37.928;2022-10-16T21:54:14;13.63;;;6.65;;
28509;SDS011;15723;55.684;37.928;2022-10-16T21:56:45;15.52;;;7.15;;
28509;SDS011;15723;55.684;37.928;2022-10-16T21:59:11;17.95;;;7.30;;
28509;SDS011;15723;55.684;37.928;2022-10-16T22:01:38;11.15;;;7.05;;
28509;SDS011;15723;55.684;37.928;2022-10-16T22:04:05;9.60;;;5.95;;
28509;SDS011;15723;55.684;37.928;2022-10-16T22:06:31;9.48;;;6.05;;
28509;SDS011;15723;55.684;37.928;2022-10-16T22:08:58;12.70;;;6.70;;
28509;SDS011;15723;55.684;37.928;2022-10-16T22:11:27;12.30;;;7.10;;
28509;SDS011;15723;55.684;37.928;2022-10-16T22:13:57;13.02;;;7.00;;
28509;SDS011;15723;55.684;37.928;2022-10-16T22:16:24;12.63;;;6.40;;
28509;SDS011;15723;55.684;37.928;2022-10-16T22:18:52;11.23;;;6.50;;
28509;SDS011;15723;55.684;37.928;2022-10-16T22:21:19;13.13;;;5.78;;
28509;SDS011;15723;55.684;37.928;2022-10-16T22:23:46;15.45;;;7.35;;
28509;SDS011;15723;55.684;37.928;2022-10-16T22:26:12;9.80;;;6.35;;
28509;SDS011;15723;55.684;37.928;2022-10-16T22:28:39;9.52;;;6.50;;
28509;SDS011;15723;55.684;37.928;2022-10-16T22:31:07;13.10;;;6.55;;
28509;SDS011;15723;55.684;37.928;2022-10-16T22:33:35;11.52;;;6.53;;
28509;SDS011;15723;55.684;37.928;2022-10-16T22:36:02;10.38;;;6.18;;
28509;SDS011;15723;55.684;37.928;2022-10-16T22:38:30;10.85;;;6.60;;
28509;SDS011;15723;55.684;37.928;2022-10-16T22:41:11;12.48;;;6.53;;
28509;SDS011;15723;55.684;37.928;2022-10-16T22:43:39;14.63;;;6.93;;
28509;SDS011;15723;55.684;37.928;2022-10-16T22:46:09;15.25;;;7.13;;
28509;SDS011;15723;55.684;37.928;2022-10-16T22:48:37;12.07;;;6.82;;
28509;SDS011;15723;55.684;37.928;2022-10-16T22:51:04;13.57;;;6.70;;
28509;SDS011;15723;55.684;37.928;2022-10-16T22:53:31;14.93;;;7.00;;
28509;SDS011;15723;55.684;37.928;2022-10-16T22:55:58;11.77;;;6.90;;
28509;SDS011;15723;55.684;37.928;2022-10-16T22:58:24;13.40;;;6.95;;